Airfield :
LOGIN :

Register | Disclaimer

   EN    FR    IT 

 










Legend :    VFR   Marginal VFR   IFR   Intensive IFR   Very Intensive IFR
Visi :
Ceiling :
>= 8 km
>= 3000ft
5 to 8 km
1000 to 3000 ft
1500m to 5 km
500 to 1000 ft
800 to 1500m
200 to 500 ft
< 800m
< 200 ft
Symbols :   Thunderstorms  Fog  Heavy snow  Heavy precipitations  Wind > 20 kt
SIGMETs :     Misc.  Thunderstorms  Icing  Turbulence  Mountain Waves  Volcanic Ashes







- Airport Elevation : 23 ft
- IATA code : XFW


EDHI - Hamburg Finkenwerder

CURRENT METAR :
  • 260950Z 30012KT 270V330 9999 VCSH FEW018 SCT027 BKN042 08/04 Q1024

EXPIRED METARs :
  • 260920Z 29017KT 9999 -SHRA BKN021CB BKN032 07/04 Q1024
  • 260850Z 29015KT 9999 SCT022 BKN029 07/03 Q1024
  • 260820Z 29013KT 9999 SCT020 BKN047 07/04 Q1024
  • 260750Z 29013KT 9999 SCT019 BKN022 07/04 Q1024
  • 260720Z 28013KT 9999 SCT020 BKN048 06/03 Q1024

TAF TAF EDHI
Valid from the 26 at 09:00 until the 26 at 18:00 UTC


260800Z 2609/2618 29012KT 9999 FEW015 BKN030
TEMPO 2609/2615 30015G25KT
TEMPO 2617/2618 BKN011
No reported NOTAMs for that airfield.



MET'MAP, your aeronautical weather chart ! - Copyright ORBIFLY December 2007 - Disclaimer

ORBIFLY MET'MAP TEAM :

Programming & Development : Alexandra Zaïnal
Concept & Development : Baudouin d'Aumeries
Co-Development & Prog : Marc-Olivier Méhu
Technical & hardware support : Manuel Goepfert

Contact : metmap@orbifly.com




SOURCES & CREDITS :

   NOAA